Time;durP1;ratioP1;P1;durP2;ratioP2;P2;SDS_P1;SDS_P2;PMS_P1;PMS_P2;Temp;Humidity;BMP_temperature;BMP_pressure;BME280_temperature;BME280_humidity;BME280_pressure;Samples;Min_cycle;Max_cycle;Signal;HPM_P1;HPM_P2
2021/07/27 00:02:19;;;;;;;74.28;9.68;;;;;;;23.32;54.13;100771.56;4991408;28;20046;-67
2021/07/27 00:04:45;;;;;;;72.65;8.60;;;;;;;23.41;54.72;100808.38;4991937;28;20025;-70
2021/07/27 00:07:10;;;;;;;76.28;10.45;;;;;;;23.30;55.30;100810.22;4990469;28;20053;-69
2021/07/27 00:09:36;;;;;;;65.20;8.77;;;;;;;23.21;55.88;100805.06;4991249;28;20491;-67
2021/07/27 00:12:01;;;;;;;57.95;8.65;;;;;;;23.16;56.03;100799.81;4975784;28;20505;-72
2021/07/27 00:14:27;;;;;;;44.35;7.63;;;;;;;23.09;56.22;100804.25;4974826;28;20085;-73
2021/07/27 00:16:52;;;;;;;37.60;6.65;;;;;;;22.71;56.59;100778.28;4976809;28;20034;-69
2021/07/27 00:19:17;;;;;;;43.17;6.90;;;;;;;22.76;57.53;100811.53;4985015;28;20455;-68
2021/07/27 00:21:43;;;;;;;21.85;5.03;;;;;;;22.86;56.33;100817.63;4989564;28;20077;-72
2021/07/27 00:24:09;;;;;;;15.70;4.40;;;;;;;22.94;56.01;100812.28;4999454;28;20050;-67
2021/07/27 00:26:35;;;;;;;11.82;4.72;;;;;;;22.91;56.25;100802.66;4997229;28;20035;-69
2021/07/27 00:29:00;;;;;;;17.25;4.57;;;;;;;22.98;54.69;100811.38;4995694;28;20034;-69
2021/07/27 00:31:28;;;;;;;10.07;4.38;;;;;;;22.88;55.22;100789.53;4999471;28;20468;-69
2021/07/27 00:33:53;;;;;;;12.38;4.25;;;;;;;22.84;56.47;100800.09;4996761;28;20473;-70
2021/07/27 00:36:19;;;;;;;8.20;3.63;;;;;;;22.68;57.25;100807.22;4996078;28;20023;-70
2021/07/27 00:38:44;;;;;;;8.13;4.20;;;;;;;22.26;57.57;100781.19;4996897;28;20030;-70
2021/07/27 00:41:11;;;;;;;8.48;4.32;;;;;;;22.32;58.53;100807.47;4995902;28;20134;-68
2021/07/27 00:43:37;;;;;;;10.90;4.75;;;;;;;22.46;57.98;100802.13;4995386;28;20026;-72
2021/07/27 00:46:02;;;;;;;9.85;4.32;;;;;;;22.42;58.64;100800.44;5013763;28;20025;-71
2021/07/27 00:48:28;;;;;;;9.60;4.35;;;;;;;22.16;59.19;100803.16;5033644;28;20097;-69
2021/07/27 00:50:54;;;;;;;8.27;4.57;;;;;;;21.78;57.83;100791.97;5033603;28;20032;-70
2021/07/27 00:53:20;;;;;;;7.55;3.95;;;;;;;21.63;57.45;100790.25;5011446;28;20065;-68
2021/07/27 00:55:45;;;;;;;10.32;4.15;;;;;;;21.72;56.43;100798.13;5019639;28;20030;-70
2021/07/27 00:58:11;;;;;;;6.30;4.00;;;;;;;21.65;56.57;100801.66;5031161;28;20036;-70
2021/07/27 01:00:37;;;;;;;9.55;4.13;;;;;;;21.50;57.11;100794.66;5022632;28;20021;-71
2021/07/27 01:03:02;;;;;;;10.23;3.95;;;;;;;21.43;56.80;100780.69;5013766;28;20084;-69
2021/07/27 01:05:28;;;;;;;10.30;4.50;;;;;;;21.33;57.57;100792.97;5013697;28;20030;-70
2021/07/27 01:07:56;;;;;;;7.53;4.40;;;;;;;21.22;58.06;100778.97;5013321;28;20033;-69
2021/07/27 01:10:21;;;;;;;11.38;3.75;;;;;;;21.17;58.70;100778.97;5013532;28;20022;-68
2021/07/27 01:12:49;;;;;;;7.07;4.35;;;;;;;21.11;59.59;100805.25;5012457;28;20495;-73
2021/07/27 01:15:16;;;;;;;9.32;5.13;;;;;;;20.88;60.23;100772.91;5012945;28;20546;-72
2021/07/27 01:17:41;;;;;;;6.05;4.03;;;;;;;20.84;61.05;100803.53;5013465;28;20091;-67
2021/07/27 01:39:33;;;;;;;7.22;4.47;;;;;;;20.55;60.26;100821.81;5012962;28;20040;-70
2021/07/27 01:42:06;;;;;;;10.45;4.38;;;;;;;20.45;60.32;100813.06;5012371;28;20507;-69
2021/07/27 01:44:33;;;;;;;12.98;4.40;;;;;;;20.60;59.69;100817.44;5012710;28;20492;-68
2021/07/27 01:46:59;;;;;;;8.88;4.32;;;;;;;20.55;60.29;100808.69;5025355;28;20030;-71
2021/07/27 01:49:24;;;;;;;12.70;4.43;;;;;;;20.47;59.86;100801.72;5015905;28;20495;-68
2021/07/27 01:51:52;;;;;;;5.90;4.45;;;;;;;20.22;60.49;100787.66;5024965;28;20490;-68
2021/07/27 01:54:27;;;;;;;7.30;4.28;;;;;;;20.47;60.27;100812.22;5022077;28;20547;-69
2021/07/27 01:56:53;;;;;;;8.35;4.30;;;;;;;20.52;60.68;100810.47;5023143;28;20057;-71
2021/07/27 01:59:18;;;;;;;7.68;4.28;;;;;;;20.65;60.97;100792.13;5022901;28;20056;-70
2021/07/27 02:01:45;;;;;;;8.65;4.32;;;;;;;21.01;61.05;100806.16;5020049;28;20026;-70
2021/07/27 02:04:10;;;;;;;14.18;4.93;;;;;;;21.08;60.93;100817.50;5020593;28;20033;-69
2021/07/27 02:06:41;;;;;;;11.18;4.35;;;;;;;20.98;61.19;100803.50;5022020;28;20072;-71
2021/07/27 02:09:09;;;;;;;11.27;4.28;;;;;;;21.11;61.34;100814.84;5012236;28;20420;-66
2021/07/27 02:11:40;;;;;;;19.23;4.90;;;;;;;21.04;62.09;100816.63;5012064;28;20523;-69
2021/07/27 02:14:06;;;;;;;26.02;5.38;;;;;;;20.95;61.86;100791.25;5012398;28;20331;-66
2021/07/27 02:16:35;;;;;;;27.98;5.30;;;;;;;21.22;61.74;100834.13;5012202;28;20026;-67
2021/07/27 02:19:01;;;;;;;52.30;6.80;;;;;;;21.30;60.83;100798.19;5011868;28;20026;-69
2021/07/27 02:21:27;;;;;;;45.67;6.40;;;;;;;21.57;60.31;100824.44;5011769;28;20088;-68
2021/07/27 02:23:52;;;;;;;56.88;7.80;;;;;;;21.60;60.82;100829.69;5012303;28;20018;-68
2021/07/27 02:26:18;;;;;;;37.22;6.40;;;;;;;21.41;60.13;100782.44;5012228;28;20419;-67
2021/07/27 02:28:43;;;;;;;24.92;5.65;;;;;;;21.65;60.03;100828.78;5012001;28;20435;-67
2021/07/27 02:31:14;;;;;;;15.18;4.72;;;;;;;21.72;59.35;100827.03;5011868;28;20470;-67
2021/07/27 02:33:40;;;;;;;17.05;4.75;;;;;;;21.73;59.31;100822.63;5012141;28;20033;-73
2021/07/27 02:36:05;;;;;;;13.02;4.80;;;;;;;21.68;58.95;100829.66;5011483;28;20443;-70
2021/07/27 02:38:31;;;;;;;10.90;4.88;;;;;;;21.63;59.20;100825.31;5011773;28;20037;-70
2021/07/27 02:40:56;;;;;;;13.80;4.60;;;;;;;21.34;60.19;100830.59;5012007;28;20044;-70
2021/07/27 02:43:22;;;;;;;9.45;4.43;;;;;;;21.31;58.88;100822.72;5011786;28;20404;-66
2021/07/27 02:45:47;;;;;;;12.23;4.60;;;;;;;21.22;58.45;100806.97;5012586;28;20556;-67
2021/07/27 02:48:13;;;;;;;18.73;4.75;;;;;;;21.38;58.72;100813.06;5031454;28;20014;-68
2021/07/27 02:50:38;;;;;;;36.65;6.28;;;;;;;21.54;58.58;100814.78;5024545;28;20033;-71
2021/07/27 02:53:03;;;;;;;30.98;6.05;;;;;;;21.37;58.77;100778.06;5022447;28;20022;-69
2021/07/27 02:55:29;;;;;;;32.75;6.53;;;;;;;21.62;59.28;100813.03;5019316;28;20459;-68
2021/07/27 02:57:54;;;;;;;35.55;7.00;;;;;;;21.63;59.15;100806.91;5018412;28;20041;-69
2021/07/27 03:00:20;;;;;;;30.98;6.32;;;;;;;21.66;58.95;100813.91;5020898;28;20034;-70
2021/07/27 03:02:46;;;;;;;27.58;6.20;;;;;;;21.55;59.19;100811.28;5020440;28;20549;-72
2021/07/27 03:05:16;;;;;;;36.80;7.10;;;;;;;21.41;60.18;100821.81;5020612;28;20025;-71
2021/07/27 03:07:50;;;;;;;34.85;7.10;;;;;;;21.26;60.35;100814.84;5021740;28;20029;-71
2021/07/27 03:10:18;;;;;;;24.90;5.80;;;;;;;21.37;60.38;100822.72;5023943;28;20388;-68
2021/07/27 03:12:44;;;;;;;24.75;6.25;;;;;;;21.50;59.93;100821.78;5026674;28;20028;-67
2021/07/27 03:15:11;;;;;;;27.75;6.03;;;;;;;21.42;59.35;100810.44;5028505;28;20021;-68
2021/07/27 03:17:37;;;;;;;23.10;6.05;;;;;;;21.47;59.22;100813.03;5029296;28;20025;-70
2021/07/27 03:20:04;;;;;;;24.20;6.18;;;;;;;21.48;59.89;100820.94;5028326;28;20371;-66
2021/07/27 03:22:30;;;;;;;18.05;5.88;;;;;;;21.27;59.78;100787.72;5030018;28;20025;-70
2021/07/27 03:24:55;;;;;;;16.70;5.88;;;;;;;21.37;59.91;100834.97;5027378;28;20018;-68
2021/07/27 03:27:21;;;;;;;29.75;7.25;;;;;;;21.09;60.72;100808.75;5027767;28;20021;-68
2021/07/27 03:29:46;;;;;;;17.48;5.28;;;;;;;21.24;59.67;100836.75;5026395;28;20033;-70
2021/07/27 03:32:12;;;;;;;27.00;5.68;;;;;;;21.09;59.30;100822.75;5028939;28;20037;-66
2021/07/27 03:34:37;;;;;;;25.02;5.45;;;;;;;21.17;59.74;100825.34;5028849;28;20013;-68
2021/07/27 03:37:03;;;;;;;15.55;6.07;;;;;;;21.25;61.16;100825.38;5030799;28;20036;-67
2021/07/27 03:39:29;;;;;;;13.02;5.57;;;;;;;21.36;61.04;100827.94;5033893;28;20026;-71
2021/07/27 03:41:54;;;;;;;14.27;5.60;;;;;;;21.28;60.36;100827.97;5031675;28;20033;-68
2021/07/27 03:44:20;;;;;;;19.20;6.05;;;;;;;21.13;60.75;100829.75;5030742;28;20480;-66
2021/07/27 03:46:45;;;;;;;15.10;6.10;;;;;;;20.90;60.25;100798.28;5033816;28;20079;-68
2021/07/27 03:49:11;;;;;;;19.63;5.63;;;;;;;21.12;61.90;100833.25;5033342;28;20064;-68
2021/07/27 03:51:36;;;;;;;15.13;5.60;;;;;;;21.12;62.37;100825.38;5029796;28;20029;-68
2021/07/27 03:54:02;;;;;;;14.10;5.18;;;;;;;21.28;62.52;100833.22;5031652;28;20492;-70
2021/07/27 03:56:27;;;;;;;12.68;5.55;;;;;;;21.31;62.66;100823.59;5029738;28;20483;-66
2021/07/27 03:58:53;;;;;;;10.55;4.85;;;;;;;21.28;63.43;100827.97;5032349;28;20093;-68
2021/07/27 04:01:18;;;;;;;11.43;5.20;;;;;;;21.36;62.62;100827.94;5031755;28;20099;-69
2021/07/27 04:03:43;;;;;;;11.15;5.50;;;;;;;21.49;62.14;100837.56;5032919;28;20553;-67
2021/07/27 04:06:09;;;;;;;19.23;5.57;;;;;;;21.54;61.79;100830.53;5033023;28;20022;-67
2021/07/27 04:08:34;;;;;;;15.80;5.75;;;;;;;21.54;61.46;100824.44;5031425;28;20022;-68
2021/07/27 04:11:04;;;;;;;20.23;5.50;;;;;;;21.66;61.74;100837.56;5031565;28;20025;-70
2021/07/27 04:13:30;;;;;;;;;;;;;;;21.59;61.83;100838.44;5005529;28;20069;-70
2021/07/27 04:15:59;;;;;;;14.00;5.60;;;;;;;21.62;61.12;100841.94;5032199;28;19997;-67
2021/07/27 04:18:24;;;;;;;10.95;5.85;;;;;;;21.19;60.03;100838.50;5031136;28;20567;-70
2021/07/27 04:20:53;;;;;;;18.38;5.50;;;;;;;20.83;60.86;100844.59;5032775;28;20135;-72
2021/07/27 04:23:18;;;;;;;46.25;7.60;;;;;;;20.32;62.87;100852.34;5033024;28;20026;-71
2021/07/27 04:25:47;;;;;;;21.98;6.35;;;;;;;20.12;64.49;100857.53;5030584;28;20076;-69
2021/07/27 04:28:12;;;;;;;19.73;5.65;;;;;;;20.23;64.18;100823.50;5031492;28;20468;-66
2021/07/27 04:30:38;;;;;;;14.35;5.10;;;;;;;20.41;64.01;100848.91;5029809;28;20032;-69
2021/07/27 04:33:05;;;;;;;17.55;6.22;;;;;;;20.34;63.35;100853.25;5031761;28;20071;-70
2021/07/27 04:35:30;;;;;;;12.38;5.63;;;;;;;20.08;64.15;100845.31;5030507;28;20407;-70
2021/07/27 04:37:58;;;;;;;10.30;5.60;;;;;;;19.95;64.77;100848.72;5032775;28;20086;-70
2021/07/27 04:40:23;;;;;;;20.20;5.75;;;;;;;20.08;64.44;100839.19;5032839;28;20032;-68
2021/07/27 04:42:49;;;;;;;13.32;5.65;;;;;;;20.09;64.56;100835.69;5030259;28;20021;-70
2021/07/27 04:45:15;;;;;;;14.07;6.50;;;;;;;20.03;65.74;100849.66;5029043;28;20036;-66
2021/07/27 04:47:40;;;;;;;23.02;6.75;;;;;;;19.96;66.09;100856.63;5032257;28;20036;-69
2021/07/27 04:50:07;;;;;;;15.38;6.43;;;;;;;20.06;66.42;100852.28;5007407;28;20022;-70
2021/07/27 04:52:32;;;;;;;12.98;6.63;;;;;;;20.17;65.92;100868.06;5030014;28;20021;-66
2021/07/27 04:54:58;;;;;;;16.90;6.00;;;;;;;20.32;65.89;100869.84;5028632;28;20427;-72
2021/07/27 04:57:23;;;;;;;17.13;5.72;;;;;;;20.15;66.26;100861.91;5030684;28;20476;-66
2021/07/27 04:59:49;;;;;;;13.48;5.60;;;;;;;20.50;65.93;100875.16;5029262;28;20025;-70
2021/07/27 05:02:14;;;;;;;12.57;6.38;;;;;;;20.52;65.85;100834.06;5015615;28;20033;-67
2021/07/27 05:04:41;;;;;;;18.92;6.47;;;;;;;20.85;65.39;100866.50;5014070;28;20030;-66
2021/07/27 05:07:06;;;;;;;16.90;7.05;;;;;;;20.96;64.68;100857.75;5014206;28;20030;-66
2021/07/27 05:09:32;;;;;;;13.35;5.95;;;;;;;21.14;63.92;100863.00;5014254;28;20044;-68
2021/07/27 05:11:59;;;;;;;16.67;6.10;;;;;;;21.25;62.67;100839.34;5014035;28;20076;-67
2021/07/27 05:14:25;;;;;;;25.85;6.20;;;;;;;21.61;62.17;100865.59;5015859;28;20037;-66
2021/07/27 05:16:50;;;;;;;21.95;5.88;;;;;;;21.77;61.20;100863.78;5025048;28;20365;-67
2021/07/27 05:19:16;;;;;;;18.40;6.90;;;;;;;21.95;61.58;100870.75;5013909;28;20033;-66
2021/07/27 05:21:41;;;;;;;27.42;6.68;;;;;;;21.91;60.84;100833.09;5013528;28;20025;-67
2021/07/27 05:24:06;;;;;;;19.27;6.38;;;;;;;22.21;60.04;100861.88;5013881;28;20542;-66
2021/07/27 05:26:32;;;;;;;23.23;7.40;;;;;;;22.38;59.90;100865.34;5013531;28;20046;-66
2021/07/27 05:28:58;;;;;;;26.90;6.80;;;;;;;22.17;59.84;100839.09;5013748;28;20022;-65
2021/07/27 05:31:24;;;;;;;26.20;7.07;;;;;;;22.33;59.22;100838.16;5012964;28;20033;-67
2021/07/27 05:33:49;;;;;;;22.50;7.22;;;;;;;22.42;59.08;100837.25;5013340;28;20498;-67
2021/07/27 05:36:15;;;;;;;38.85;14.88;;;;;;;22.73;58.86;100858.97;5013662;28;20022;-67
2021/07/27 05:38:40;;;;;;;38.58;11.85;;;;;;;22.80;58.32;100843.97;5013102;28;20026;-67
2021/07/27 05:41:05;;;;;;;25.67;10.82;;;;;;;22.94;59.21;100862.31;5031803;28;20426;-67
2021/07/27 05:43:31;;;;;;;26.95;9.30;;;;;;;22.89;58.97;100859.72;5043212;28;20028;-67
2021/07/27 05:45:57;;;;;;;24.75;9.05;;;;;;;22.99;59.08;100864.91;5037962;28;20060;-67
2021/07/27 05:48:23;;;;;;;24.08;8.93;;;;;;;22.91;58.59;100836.88;5033528;28;20040;-70
2021/07/27 05:50:50;;;;;;;24.55;8.75;;;;;;;23.01;58.02;100866.63;5043307;28;20029;-70
2021/07/27 05:53:15;;;;;;;26.05;8.23;;;;;;;22.88;58.19;100839.53;5042015;28;20476;-72
2021/07/27 05:55:40;;;;;;;23.55;7.35;;;;;;;22.94;60.24;100846.50;5041585;28;20013;-71
2021/07/27 05:58:06;;;;;;;19.23;7.10;;;;;;;23.02;57.89;100872.78;5043067;28;20471;-66
2021/07/27 06:00:35;;;;;;;23.83;7.68;;;;;;;22.94;57.86;100859.66;5041389;28;20029;-66
2021/07/27 06:03:06;;;;;;;30.00;8.27;;;;;;;23.12;57.88;100868.34;5041649;28;20463;-67
2021/07/27 06:05:32;;;;;;;17.75;7.50;;;;;;;23.22;58.57;100868.25;5038680;28;20031;-68
2021/07/27 06:07:58;;;;;;;23.40;7.45;;;;;;;23.46;56.76;100863.63;5030059;28;20112;-68
2021/07/27 06:10:23;;;;;;;25.98;8.50;;;;;;;23.52;57.11;100860.94;5018406;28;20079;-78
2021/07/27 06:12:49;;;;;;;19.60;7.85;;;;;;;23.71;57.96;100872.16;5028444;28;20106;-69
2021/07/27 06:15:14;;;;;;;15.88;7.18;;;;;;;23.84;56.44;100867.63;5020568;28;20033;-67
2021/07/27 06:17:39;;;;;;;23.00;7.35;;;;;;;23.95;55.18;100854.34;5021819;28;20476;-71
2021/07/27 06:20:06;;;;;;;17.38;7.97;;;;;;;24.27;54.13;100849.53;5022334;28;20025;-68
2021/07/27 06:22:31;;;;;;;23.40;7.43;;;;;;;24.45;53.61;100851.91;5022992;28;20159;-68
2021/07/27 06:24:58;;;;;;;14.38;5.72;;;;;;;24.64;51.33;100849.00;5021023;28;20096;-68
2021/07/27 06:27:23;;;;;;;26.13;6.78;;;;;;;24.71;50.89;100830.44;5021623;28;20104;-69
2021/07/27 06:29:49;;;;;;;18.17;6.85;;;;;;;24.87;51.11;100828.41;4984997;28;20141;-67
2021/07/27 06:32:16;;;;;;;13.82;6.70;;;;;;;24.95;51.17;100833.56;5022778;28;20026;-68
2021/07/27 06:34:42;;;;;;;14.80;6.40;;;;;;;24.98;50.86;100822.91;5021296;28;20495;-71
2021/07/27 06:37:07;;;;;;;10.25;6.53;;;;;;;25.16;50.99;100832.31;5021055;28;20029;-68
2021/07/27 06:39:33;;;;;;;19.77;7.35;;;;;;;25.20;50.70;100830.50;5021666;28;20021;-66
2021/07/27 06:41:58;;;;;;;19.75;7.22;;;;;;;25.32;49.77;100821.44;5013697;28;20032;-72
2021/07/27 06:44:24;;;;;;;16.55;6.53;;;;;;;25.43;49.02;100811.56;5015474;28;20029;-69
2021/07/27 06:46:49;;;;;;;18.45;7.15;;;;;;;25.54;49.82;100815.78;5012911;28;20117;-68
2021/07/27 06:49:15;;;;;;;14.75;6.38;;;;;;;25.51;48.88;100822.88;5011373;28;20029;-67
2021/07/27 06:51:42;;;;;;;14.45;7.13;;;;;;;25.52;49.31;100826.38;5011275;28;20025;-68
2021/07/27 06:54:09;;;;;;;21.75;6.10;;;;;;;25.38;48.32;100818.72;5011008;28;20050;-74
2021/07/27 06:56:37;;;;;;;15.23;6.28;;;;;;;25.40;50.41;100821.34;5010155;28;20061;-68
2021/07/27 06:59:03;;;;;;;17.58;6.22;;;;;;;25.51;49.68;100822.03;5011062;28;20029;-68
2021/07/27 07:01:28;;;;;;;14.07;6.32;;;;;;;25.61;48.38;100828.84;5007791;28;20026;-66
2021/07/27 07:03:54;;;;;;;15.60;6.20;;;;;;;25.76;47.80;100826.81;5011200;28;20034;-70
2021/07/27 07:06:19;;;;;;;15.00;5.40;;;;;;;25.87;46.02;100821.28;5015673;28;20029;-66
2021/07/27 07:08:47;;;;;;;9.70;4.95;;;;;;;25.77;45.80;100808.28;5014783;28;20029;-69
2021/07/27 07:11:12;;;;;;;12.25;5.22;;;;;;;25.82;45.35;100810.78;5010615;28;20021;-68
2021/07/27 07:13:38;;;;;;;9.15;3.75;;;;;;;25.79;42.29;100800.28;5010967;28;20105;-71
2021/07/27 07:16:10;;;;;;;12.95;4.82;;;;;;;26.12;43.61;100816.34;5010869;28;20045;-70
2021/07/27 07:18:36;;;;;;;14.80;4.80;;;;;;;26.38;43.69;100821.09;5010826;28;20109;-70
2021/07/27 07:21:06;;;;;;;9.98;5.03;;;;;;;26.44;44.32;100809.47;5010800;28;20028;-69
2021/07/27 07:23:32;;;;;;;9.57;4.90;;;;;;;26.72;43.29;100816.75;5010092;28;20022;-70
2021/07/27 07:25:58;;;;;;;10.63;4.50;;;;;;;26.84;42.40;100808.50;5010261;28;20026;-67
2021/07/27 07:28:23;;;;;;;11.85;4.53;;;;;;;26.92;42.43;100811.00;5010557;28;20088;-70
2021/07/27 07:30:49;;;;;;;12.00;4.40;;;;;;;26.93;44.42;100803.00;5009095;28;20600;-69
2021/07/27 07:33:15;;;;;;;12.27;4.60;;;;;;;27.10;41.95;100806.97;5010360;28;20037;-71
2021/07/27 07:35:40;;;;;;;12.60;4.80;;;;;;;27.15;42.44;100802.41;5010588;28;20022;-68
2021/07/27 07:38:06;;;;;;;12.80;4.40;;;;;;;27.41;41.38;100806.16;5009175;28;20415;-70
2021/07/27 07:40:32;;;;;;;9.38;4.35;;;;;;;27.37;41.97;100817.75;5016794;28;20041;-70
2021/07/27 07:42:58;;;;;;;13.77;5.28;;;;;;;27.43;41.79;100809.66;5010389;28;20022;-65
2021/07/27 07:45:24;;;;;;;18.52;4.10;;;;;;;27.62;40.40;100814.44;5011993;28;20044;-65
2021/07/27 07:47:49;;;;;;;9.35;4.53;;;;;;;27.59;40.69;100797.69;5011482;28;20468;-67
2021/07/27 07:50:15;;;;;;;6.53;4.30;;;;;;;27.70;40.40;100810.66;5010189;28;20018;-66
2021/07/27 07:52:40;;;;;;;9.25;4.50;;;;;;;27.76;42.75;100821.09;5010324;28;20408;-68
2021/07/27 07:55:07;;;;;;;10.20;4.20;;;;;;;27.89;39.06;100815.44;5042104;28;20045;-70
2021/07/27 07:57:34;;;;;;;9.93;4.28;;;;;;;27.88;39.68;100814.53;5050684;28;20506;-67
2021/07/27 08:00:01;;;;;;;7.63;4.10;;;;;;;28.11;39.20;100815.66;5050881;28;20036;-68
2021/07/27 08:02:27;;;;;;;8.77;4.32;;;;;;;28.31;39.48;100816.81;5050926;28;20490;-68
2021/07/27 08:04:53;;;;;;;18.00;5.28;;;;;;;28.22;40.66;100797.59;5050813;28;20051;-69
2021/07/27 08:07:19;;;;;;;11.13;4.40;;;;;;;28.29;39.43;100811.56;5044589;28;20049;-68
2021/07/27 08:09:45;;;;;;;10.00;3.78;;;;;;;28.45;39.28;100809.31;5040926;28;20540;-67
2021/07/27 08:12:12;;;;;;;9.63;4.40;;;;;;;28.69;39.42;100822.72;5041093;28;20036;-68
2021/07/27 08:14:37;;;;;;;7.78;4.25;;;;;;;28.69;40.42;100806.78;5039183;28;20101;-65
2021/07/27 08:17:03;;;;;;;8.30;4.10;;;;;;;28.82;38.79;100813.41;5039404;28;20032;-66
2021/07/27 08:19:30;;;;;;;9.50;4.40;;;;;;;28.89;38.86;100814.94;5034447;28;20028;-66
2021/07/27 08:21:56;;;;;;;10.52;4.40;;;;;;;29.03;38.70;100806.47;5041474;28;20114;-67
2021/07/27 08:24:22;;;;;;;10.98;4.65;;;;;;;29.05;39.93;100811.75;5043412;28;20072;-67
2021/07/27 08:26:47;;;;;;;10.10;4.47;;;;;;;29.01;38.19;100811.00;5045477;28;20472;-67
2021/07/27 08:29:12;;;;;;;10.10;4.05;;;;;;;28.89;39.38;100806.09;5040238;28;20547;-67
2021/07/27 08:31:38;;;;;;;7.07;3.92;;;;;;;28.93;37.44;100806.88;5044192;28;20380;-66
2021/07/27 08:34:03;;;;;;;12.60;4.38;;;;;;;29.00;36.97;100808.41;5044640;28;20029;-68
2021/07/27 08:36:29;;;;;;;6.35;3.60;;;;;;;29.02;36.14;100803.88;5036542;28;20104;-66
2021/07/27 08:38:54;;;;;;;7.65;3.70;;;;;;;29.08;34.56;100797.50;5045344;28;20029;-68
2021/07/27 08:41:27;;;;;;;7.20;3.50;;;;;;;29.24;34.77;100795.16;5044949;28;20021;-68
2021/07/27 08:43:53;;;;;;;9.00;3.55;;;;;;;29.19;34.56;100774.06;5044556;28;20376;-69
2021/07/27 08:46:19;;;;;;;15.35;3.25;;;;;;;29.32;33.49;100769.19;5042584;28;20071;-69
2021/07/27 08:48:45;;;;;;;4.82;3.60;;;;;;;29.56;39.65;100798.44;5038295;28;20018;-68
2021/07/27 08:51:11;;;;;;;6.38;3.30;;;;;;;29.62;34.59;100788.47;5017571;28;20041;-67
2021/07/27 08:53:37;;;;;;;9.70;4.07;;;;;;;29.71;32.91;100789.91;5014189;28;20058;-67
2021/07/27 08:56:02;;;;;;;5.22;3.47;;;;;;;29.62;33.56;100756.53;5014118;28;20042;-68
2021/07/27 08:58:28;;;;;;;7.40;3.72;;;;;;;30.01;38.05;100789.69;5013792;28;20034;-67
2021/07/27 09:00:53;;;;;;;6.88;3.60;;;;;;;29.84;36.69;100793.81;5013880;28;20036;-68
2021/07/27 09:03:20;;;;;;;6.60;3.30;;;;;;;29.81;33.24;100788.63;5013902;28;20026;-68
2021/07/27 09:05:47;;;;;;;7.93;3.55;;;;;;;29.67;32.50;100754.56;5013853;28;20119;-72
2021/07/27 09:08:16;;;;;;;6.90;3.10;;;;;;;29.93;31.20;100784.63;4996359;28;20480;-68
2021/07/27 09:10:44;;;;;;;6.38;3.08;;;;;;;30.13;31.17;100773.22;5013835;28;20026;-65
2021/07/27 09:13:15;;;;;;;4.80;3.00;;;;;;;30.32;31.71;100777.81;5013715;28;20033;-67
2021/07/27 09:15:43;;;;;;;7.95;3.42;;;;;;;30.29;31.74;100756.59;5013646;28;20460;-67
2021/07/27 09:18:11;;;;;;;5.78;3.30;;;;;;;30.59;31.36;100774.94;5013360;28;20018;-69
2021/07/27 09:20:43;;;;;;;10.75;3.15;;;;;;;30.59;31.64;100780.28;5014199;28;20038;-67
2021/07/27 09:23:14;;;;;;;4.10;3.00;;;;;;;30.71;30.94;100770.91;5013565;28;20084;-67
2021/07/27 09:26:02;;;;;;;8.35;3.40;;;;;;;30.75;30.88;100777.84;5013374;28;20034;-66
2021/07/27 09:28:28;;;;;;;9.82;3.45;;;;;;;30.92;30.79;100777.13;4971969;28;20039;-69
2021/07/27 09:31:01;;;;;;;6.80;3.55;;;;;;;31.08;30.98;100778.19;4972436;28;20429;-67
2021/07/27 09:33:30;;;;;;;8.30;3.03;;;;;;;31.25;29.70;100780.09;4971673;28;20051;-66
2021/07/27 09:35:56;;;;;;;12.93;3.90;;;;;;;31.31;29.68;100778.97;4971521;28;20113;-70
2021/07/27 09:38:23;;;;;;;11.15;3.40;;;;;;;31.44;29.59;100776.59;4971892;28;20034;-66
2021/07/27 09:41:06;;;;;;;7.72;3.30;;;;;;;31.51;28.51;100770.06;4971983;28;20043;-72
2021/07/27 09:43:32;;;;;;;8.00;3.33;;;;;;;31.37;29.02;100746.69;4971740;28;20464;-68
2021/07/27 09:46:02;;;;;;;7.82;3.20;;;;;;;31.69;29.09;100768.38;4971986;28;20096;-66
2021/07/27 09:48:29;;;;;;;6.45;3.13;;;;;;;31.73;28.11;100763.75;4972011;28;20393;-69
2021/07/27 09:50:56;;;;;;;6.78;3.13;;;;;;;31.92;27.97;100763.75;4972011;28;20424;-67
2021/07/27 09:53:23;;;;;;;7.00;3.10;;;;;;;32.14;28.17;100763.56;4998523;28;20052;-68
2021/07/27 09:55:51;;;;;;;10.45;3.60;;;;;;;32.34;27.88;100773.31;5013097;28;20506;-68
2021/07/27 09:58:17;;;;;;;6.15;3.08;;;;;;;32.38;26.88;100766.84;5012851;28;20399;-67
2021/07/27 10:00:57;;;;;;;5.85;3.17;;;;;;;32.49;27.26;100762.78;4995272;28;20030;-70
2021/07/27 10:03:24;;;;;;;5.65;3.20;;;;;;;32.60;28.80;100771.13;5013089;28;20022;-67
2021/07/27 10:05:54;;;;;;;7.40;3.63;;;;;;;32.22;29.12;100747.19;5012690;28;20034;-69
2021/07/27 10:08:29;;;;;;;6.90;3.35;;;;;;;32.24;28.58;100753.34;5012724;28;20108;-68
2021/07/27 10:11:12;;;;;;;6.15;3.35;;;;;;;32.39;26.78;100751.72;5012654;28;20041;-68
2021/07/27 10:13:48;;;;;;;5.97;3.15;;;;;;;32.69;26.43;100746.59;5012752;28;20033;-67
2021/07/27 10:16:25;;;;;;;7.53;3.28;;;;;;;32.71;28.30;100736.69;5012498;28;20030;-67
2021/07/27 10:18:52;;;;;;;5.65;3.20;;;;;;;32.63;26.54;100722.00;5012738;28;20030;-71
2021/07/27 10:21:28;;;;;;;5.75;3.28;;;;;;;32.73;26.04;100710.72;5012793;28;20044;-68
2021/07/27 10:23:57;;;;;;;10.10;3.65;;;;;;;32.71;27.31;100735.81;5012538;28;20022;-68
2021/07/27 10:26:41;;;;;;;;;;;;;;;32.28;27.49;100738.00;5012973;28;20487;-68
2021/07/27 10:29:06;;;;;;;10.85;4.47;;;;;;;32.30;27.53;100729.00;5012163;28;19909;-68
2021/07/27 10:31:36;;;;;;;8.20;3.38;;;;;;;32.57;28.99;100729.38;4994828;28;20403;-68
2021/07/27 10:34:06;;;;;;;9.63;3.85;;;;;;;32.51;27.96;100729.72;5012011;28;20411;-70
2021/07/27 10:36:37;;;;;;;7.75;3.33;;;;;;;32.66;26.60;100719.16;5012215;28;20476;-70
2021/07/27 10:39:15;;;;;;;7.97;3.60;;;;;;;32.99;27.00;100719.22;5012161;28;20029;-69
2021/07/27 10:41:45;;;;;;;5.28;3.67;;;;;;;33.17;27.72;100722.72;5012185;28;20029;-67
2021/07/27 10:44:36;;;;;;;6.82;3.72;;;;;;;33.29;25.60;100715.88;5012500;28;20041;-66
2021/07/27 10:47:02;;;;;;;5.72;3.65;;;;;;;33.56;25.48;100715.31;4989904;28;20050;-68
2021/07/27 10:49:28;;;;;;;6.35;3.15;;;;;;;33.75;25.17;100717.81;4990325;28;20042;-67
2021/07/27 10:52:01;;;;;;;6.75;3.47;;;;;;;33.85;24.73;100702.97;4989961;28;20034;-67
2021/07/27 10:54:31;;;;;;;4.85;3.15;;;;;;;34.03;25.40;100701.03;4989930;28;20054;-67
2021/07/27 10:57:01;;;;;;;11.00;3.50;;;;;;;34.14;24.93;100708.44;4989948;28;20038;-68
2021/07/27 10:59:31;;;;;;;7.22;4.00;;;;;;;34.18;24.84;100710.00;4989869;28;20040;-75
2021/07/27 11:02:00;;;;;;;;;;;;;;;34.07;24.78;100708.88;4990373;28;20487;-66
2021/07/27 11:04:30;;;;;;;10.15;4.30;;;;;;;34.26;26.40;100708.66;4989564;28;19906;-68
2021/07/27 11:07:12;;;;;;;14.65;4.47;;;;;;;34.36;27.46;100704.53;4989745;28;20038;-68
2021/07/27 11:09:53;;;;;;;13.55;3.65;;;;;;;34.60;24.68;100707.53;4989854;28;20034;-68
2021/07/27 11:12:39;;;;;;;9.82;3.90;;;;;;;34.65;24.24;100684.00;4995105;28;20177;-68
2021/07/27 11:15:20;;;;;;;7.70;4.38;;;;;;;34.90;26.87;100695.94;5000138;28;20030;-68
2021/07/27 11:17:49;;;;;;;13.38;4.22;;;;;;;35.10;23.06;100683.94;5012829;28;20045;-70
2021/07/27 11:20:20;;;;;;;9.32;3.72;;;;;;;35.08;23.63;100687.69;5041573;28;20026;-70
2021/07/27 11:22:49;;;;;;;7.53;3.35;;;;;;;35.06;22.90;100679.75;5035061;28;20726;-72
2021/07/27 11:25:19;;;;;;;7.65;3.42;;;;;;;35.10;23.39;100675.03;5041006;28;20475;-68
2021/07/27 11:27:45;;;;;;;6.28;3.88;;;;;;;34.89;23.23;100667.38;5030494;28;20412;-68
2021/07/27 11:30:12;;;;;;;10.20;3.40;;;;;;;35.15;23.41;100667.56;5041583;28;20025;-67
2021/07/27 11:32:50;;;;;;;10.57;3.85;;;;;;;34.96;23.40;100666.03;5001316;28;20037;-68
2021/07/27 11:35:23;;;;;;;8.20;3.58;;;;;;;34.98;23.52;100669.50;5035940;28;20032;-68
2021/07/27 11:38:04;;;;;;;9.65;4.00;;;;;;;35.25;23.11;100662.47;5038527;28;20037;-69
2021/07/27 11:40:31;;;;;;;7.95;4.00;;;;;;;35.47;23.55;100662.84;5038136;28;20083;-69
2021/07/27 11:43:05;;;;;;;8.63;3.53;;;;;;;35.85;25.78;100660.41;5014987;28;20045;-67